sensor_id;sensor_type;location;lat;lon;timestamp;P1;durP1;ratioP1;P2;durP2;ratioP2
44508;SDS011;30214;52.246;14.408;2022-12-19T00:01:02;70.43;;;27.67;;
44508;SDS011;30214;52.246;14.408;2022-12-19T00:03:40;66.03;;;26.35;;
44508;SDS011;30214;52.246;14.408;2022-12-19T00:06:10;67.00;;;27.13;;
44508;SDS011;30214;52.246;14.408;2022-12-19T00:08:39;66.88;;;26.45;;
44508;SDS011;30214;52.246;14.408;2022-12-19T00:11:07;73.35;;;28.02;;
44508;SDS011;30214;52.246;14.408;2022-12-19T00:13:35;68.03;;;27.73;;
44508;SDS011;30214;52.246;14.408;2022-12-19T00:16:03;69.80;;;28.73;;
44508;SDS011;30214;52.246;14.408;2022-12-19T00:18:33;70.10;;;29.33;;
44508;SDS011;30214;52.246;14.408;2022-12-19T00:21:01;70.28;;;27.02;;
44508;SDS011;30214;52.246;14.408;2022-12-19T00:23:32;60.08;;;24.80;;
44508;SDS011;30214;52.246;14.408;2022-12-19T00:26:07;65.88;;;27.35;;
44508;SDS011;30214;52.246;14.408;2022-12-19T00:28:39;64.90;;;27.08;;
44508;SDS011;30214;52.246;14.408;2022-12-19T00:31:07;64.05;;;26.80;;
44508;SDS011;30214;52.246;14.408;2022-12-19T00:33:37;65.82;;;27.77;;
44508;SDS011;30214;52.246;14.408;2022-12-19T00:36:06;56.85;;;23.67;;
44508;SDS011;30214;52.246;14.408;2022-12-19T00:38:38;69.55;;;27.95;;
44508;SDS011;30214;52.246;14.408;2022-12-19T00:41:09;70.22;;;27.63;;
44508;SDS011;30214;52.246;14.408;2022-12-19T00:43:37;68.80;;;27.65;;
44508;SDS011;30214;52.246;14.408;2022-12-19T00:46:06;63.05;;;25.15;;
44508;SDS011;30214;52.246;14.408;2022-12-19T00:48:35;71.43;;;29.92;;
44508;SDS011;30214;52.246;14.408;2022-12-19T00:51:02;64.80;;;26.15;;
44508;SDS011;30214;52.246;14.408;2022-12-19T00:53:32;70.20;;;27.58;;
44508;SDS011;30214;52.246;14.408;2022-12-19T00:56:02;65.68;;;27.02;;
44508;SDS011;30214;52.246;14.408;2022-12-19T00:58:31;65.93;;;26.92;;
44508;SDS011;30214;52.246;14.408;2022-12-19T01:01:03;70.63;;;27.73;;
44508;SDS011;30214;52.246;14.408;2022-12-19T01:03:32;62.33;;;25.33;;
44508;SDS011;30214;52.246;14.408;2022-12-19T01:05:59;69.57;;;27.60;;
44508;SDS011;30214;52.246;14.408;2022-12-19T01:08:26;67.03;;;27.10;;
44508;SDS011;30214;52.246;14.408;2022-12-19T01:10:53;67.75;;;27.45;;
44508;SDS011;30214;52.246;14.408;2022-12-19T01:13:23;64.88;;;25.73;;
44508;SDS011;30214;52.246;14.408;2022-12-19T01:15:50;69.15;;;27.02;;
44508;SDS011;30214;52.246;14.408;2022-12-19T01:18:17;67.90;;;26.85;;
44508;SDS011;30214;52.246;14.408;2022-12-19T01:20:46;58.83;;;24.35;;
44508;SDS011;30214;52.246;14.408;2022-12-19T01:23:14;56.55;;;24.58;;
44508;SDS011;30214;52.246;14.408;2022-12-19T01:25:42;59.78;;;24.58;;
44508;SDS011;30214;52.246;14.408;2022-12-19T01:28:14;59.03;;;24.92;;
44508;SDS011;30214;52.246;14.408;2022-12-19T01:30:42;57.83;;;25.05;;
44508;SDS011;30214;52.246;14.408;2022-12-19T01:33:10;60.38;;;25.20;;
44508;SDS011;30214;52.246;14.408;2022-12-19T01:35:38;65.40;;;26.17;;
44508;SDS011;30214;52.246;14.408;2022-12-19T01:38:10;65.13;;;26.02;;
44508;SDS011;30214;52.246;14.408;2022-12-19T01:40:39;61.38;;;24.85;;
44508;SDS011;30214;52.246;14.408;2022-12-19T01:43:14;66.20;;;26.23;;
44508;SDS011;30214;52.246;14.408;2022-12-19T01:45:43;60.97;;;26.55;;
44508;SDS011;30214;52.246;14.408;2022-12-19T01:48:15;67.45;;;25.90;;
44508;SDS011;30214;52.246;14.408;2022-12-19T01:50:53;64.45;;;24.52;;
44508;SDS011;30214;52.246;14.408;2022-12-19T01:53:23;60.33;;;24.42;;
44508;SDS011;30214;52.246;14.408;2022-12-19T01:55:54;66.97;;;25.80;;
44508;SDS011;30214;52.246;14.408;2022-12-19T01:58:22;63.38;;;25.58;;
44508;SDS011;30214;52.246;14.408;2022-12-19T02:00:51;64.90;;;25.30;;
44508;SDS011;30214;52.246;14.408;2022-12-19T02:03:19;64.40;;;25.70;;
44508;SDS011;30214;52.246;14.408;2022-12-19T02:05:52;66.82;;;24.65;;
44508;SDS011;30214;52.246;14.408;2022-12-19T02:08:20;65.68;;;25.83;;
44508;SDS011;30214;52.246;14.408;2022-12-19T02:10:48;60.13;;;24.70;;
44508;SDS011;30214;52.246;14.408;2022-12-19T02:13:16;67.10;;;26.58;;
44508;SDS011;30214;52.246;14.408;2022-12-19T02:15:47;62.25;;;25.45;;
44508;SDS011;30214;52.246;14.408;2022-12-19T02:18:26;65.95;;;25.88;;
44508;SDS011;30214;52.246;14.408;2022-12-19T02:24:09;61.15;;;24.58;;
44508;SDS011;30214;52.246;14.408;2022-12-19T02:27:25;59.33;;;23.80;;
44508;SDS011;30214;52.246;14.408;2022-12-19T02:30:28;62.42;;;25.75;;
44508;SDS011;30214;52.246;14.408;2022-12-19T02:33:18;59.20;;;25.00;;
44508;SDS011;30214;52.246;14.408;2022-12-19T02:35:59;58.45;;;22.10;;
44508;SDS011;30214;52.246;14.408;2022-12-19T02:38:35;63.13;;;23.95;;
44508;SDS011;30214;52.246;14.408;2022-12-19T02:43:41;62.50;;;23.13;;
44508;SDS011;30214;52.246;14.408;2022-12-19T02:46:15;59.20;;;24.13;;
44508;SDS011;30214;52.246;14.408;2022-12-19T02:48:44;68.20;;;26.13;;
44508;SDS011;30214;52.246;14.408;2022-12-19T02:51:12;56.10;;;24.92;;
44508;SDS011;30214;52.246;14.408;2022-12-19T02:53:41;60.92;;;24.55;;
44508;SDS011;30214;52.246;14.408;2022-12-19T02:56:19;60.08;;;24.67;;
44508;SDS011;30214;52.246;14.408;2022-12-19T02:59:07;63.25;;;25.05;;
44508;SDS011;30214;52.246;14.408;2022-12-19T03:01:48;57.38;;;24.35;;
44508;SDS011;30214;52.246;14.408;2022-12-19T03:04:24;52.70;;;23.80;;
44508;SDS011;30214;52.246;14.408;2022-12-19T03:07:02;63.35;;;25.73;;
44508;SDS011;30214;52.246;14.408;2022-12-19T03:09:43;60.53;;;25.88;;
44508;SDS011;30214;52.246;14.408;2022-12-19T03:12:20;56.95;;;24.27;;
44508;SDS011;30214;52.246;14.408;2022-12-19T03:14:53;68.28;;;25.10;;
44508;SDS011;30214;52.246;14.408;2022-12-19T03:17:25;56.38;;;23.02;;
44508;SDS011;30214;52.246;14.408;2022-12-19T03:19:53;57.28;;;24.35;;
44508;SDS011;30214;52.246;14.408;2022-12-19T03:22:21;65.35;;;26.08;;
44508;SDS011;30214;52.246;14.408;2022-12-19T03:24:48;62.22;;;24.45;;
44508;SDS011;30214;52.246;14.408;2022-12-19T03:27:17;66.07;;;24.65;;
44508;SDS011;30214;52.246;14.408;2022-12-19T03:29:52;60.60;;;25.42;;
44508;SDS011;30214;52.246;14.408;2022-12-19T03:32:26;64.88;;;25.33;;
44508;SDS011;30214;52.246;14.408;2022-12-19T03:34:56;61.75;;;24.85;;
44508;SDS011;30214;52.246;14.408;2022-12-19T03:37:30;57.40;;;24.02;;
44508;SDS011;30214;52.246;14.408;2022-12-19T03:40:00;62.22;;;24.23;;
44508;SDS011;30214;52.246;14.408;2022-12-19T03:42:31;60.70;;;23.30;;
44508;SDS011;30214;52.246;14.408;2022-12-19T03:45:18;59.92;;;23.55;;
44508;SDS011;30214;52.246;14.408;2022-12-19T03:47:53;57.47;;;23.30;;
44508;SDS011;30214;52.246;14.408;2022-12-19T03:50:26;58.88;;;25.60;;
44508;SDS011;30214;52.246;14.408;2022-12-19T03:53:08;62.20;;;24.02;;
44508;SDS011;30214;52.246;14.408;2022-12-19T03:55:52;62.38;;;26.00;;
44508;SDS011;30214;52.246;14.408;2022-12-19T03:58:26;59.55;;;24.80;;
44508;SDS011;30214;52.246;14.408;2022-12-19T04:00:57;56.35;;;23.27;;
44508;SDS011;30214;52.246;14.408;2022-12-19T04:03:26;54.92;;;22.80;;
44508;SDS011;30214;52.246;14.408;2022-12-19T04:05:56;61.28;;;24.83;;
44508;SDS011;30214;52.246;14.408;2022-12-19T04:08:24;59.65;;;24.83;;
44508;SDS011;30214;52.246;14.408;2022-12-19T04:10:54;62.17;;;24.48;;
44508;SDS011;30214;52.246;14.408;2022-12-19T04:13:28;60.80;;;23.63;;
44508;SDS011;30214;52.246;14.408;2022-12-19T04:16:02;59.40;;;24.88;;
44508;SDS011;30214;52.246;14.408;2022-12-19T04:18:38;62.33;;;24.48;;
44508;SDS011;30214;52.246;14.408;2022-12-19T04:21:08;57.70;;;25.38;;
44508;SDS011;30214;52.246;14.408;2022-12-19T04:23:41;59.78;;;24.75;;
44508;SDS011;30214;52.246;14.408;2022-12-19T04:26:13;59.53;;;24.23;;
44508;SDS011;30214;52.246;14.408;2022-12-19T04:28:46;65.30;;;24.05;;
44508;SDS011;30214;52.246;14.408;2022-12-19T04:31:16;60.63;;;24.02;;
44508;SDS011;30214;52.246;14.408;2022-12-19T04:33:47;57.03;;;22.88;;
44508;SDS011;30214;52.246;14.408;2022-12-19T04:36:14;62.25;;;25.73;;
44508;SDS011;30214;52.246;14.408;2022-12-19T04:38:41;63.33;;;25.58;;
44508;SDS011;30214;52.246;14.408;2022-12-19T04:41:08;61.83;;;24.75;;
44508;SDS011;30214;52.246;14.408;2022-12-19T04:43:35;58.20;;;25.00;;
44508;SDS011;30214;52.246;14.408;2022-12-19T04:46:02;61.15;;;24.73;;
44508;SDS011;30214;52.246;14.408;2022-12-19T04:48:29;65.43;;;27.20;;
44508;SDS011;30214;52.246;14.408;2022-12-19T04:50:58;64.03;;;27.25;;
44508;SDS011;30214;52.246;14.408;2022-12-19T04:53:25;69.32;;;25.67;;
44508;SDS011;30214;52.246;14.408;2022-12-19T04:55:58;58.85;;;24.55;;
44508;SDS011;30214;52.246;14.408;2022-12-19T04:58:26;62.25;;;24.58;;
44508;SDS011;30214;52.246;14.408;2022-12-19T05:00:54;62.58;;;25.10;;
44508;SDS011;30214;52.246;14.408;2022-12-19T05:03:20;53.83;;;23.85;;
44508;SDS011;30214;52.246;14.408;2022-12-19T05:05:48;57.50;;;24.45;;
44508;SDS011;30214;52.246;14.408;2022-12-19T05:08:16;64.50;;;24.33;;
44508;SDS011;30214;52.246;14.408;2022-12-19T05:10:43;64.55;;;24.88;;
44508;SDS011;30214;52.246;14.408;2022-12-19T05:13:10;64.93;;;27.70;;
44508;SDS011;30214;52.246;14.408;2022-12-19T05:15:37;57.47;;;23.95;;
44508;SDS011;30214;52.246;14.408;2022-12-19T05:18:04;58.65;;;24.25;;
44508;SDS011;30214;52.246;14.408;2022-12-19T05:20:31;61.08;;;25.60;;
44508;SDS011;30214;52.246;14.408;2022-12-19T05:22:59;54.50;;;22.23;;
44508;SDS011;30214;52.246;14.408;2022-12-19T05:25:27;58.67;;;24.55;;
44508;SDS011;30214;52.246;14.408;2022-12-19T05:27:54;57.78;;;24.35;;
44508;SDS011;30214;52.246;14.408;2022-12-19T05:30:21;59.33;;;24.77;;
44508;SDS011;30214;52.246;14.408;2022-12-19T05:32:48;55.50;;;24.02;;
44508;SDS011;30214;52.246;14.408;2022-12-19T05:35:15;63.72;;;24.15;;
44508;SDS011;30214;52.246;14.408;2022-12-19T05:37:43;63.00;;;26.30;;
44508;SDS011;30214;52.246;14.408;2022-12-19T05:40:10;54.85;;;23.88;;
44508;SDS011;30214;52.246;14.408;2022-12-19T05:42:39;59.65;;;23.63;;
44508;SDS011;30214;52.246;14.408;2022-12-19T05:45:06;58.58;;;23.90;;
44508;SDS011;30214;52.246;14.408;2022-12-19T05:47:34;57.17;;;23.15;;
44508;SDS011;30214;52.246;14.408;2022-12-19T05:50:02;56.15;;;22.55;;
44508;SDS011;30214;52.246;14.408;2022-12-19T05:52:29;56.72;;;23.85;;
44508;SDS011;30214;52.246;14.408;2022-12-19T05:54:56;61.70;;;23.70;;
44508;SDS011;30214;52.246;14.408;2022-12-19T05:57:39;57.22;;;23.77;;
44508;SDS011;30214;52.246;14.408;2022-12-19T06:00:07;60.97;;;23.20;;
44508;SDS011;30214;52.246;14.408;2022-12-19T06:02:39;53.15;;;22.88;;
44508;SDS011;30214;52.246;14.408;2022-12-19T06:05:11;59.67;;;23.33;;
44508;SDS011;30214;52.246;14.408;2022-12-19T06:07:38;59.47;;;25.42;;
44508;SDS011;30214;52.246;14.408;2022-12-19T06:10:06;55.53;;;23.83;;
44508;SDS011;30214;52.246;14.408;2022-12-19T06:12:34;58.50;;;23.83;;
44508;SDS011;30214;52.246;14.408;2022-12-19T06:15:02;58.03;;;23.27;;
44508;SDS011;30214;52.246;14.408;2022-12-19T06:17:30;58.25;;;23.65;;
44508;SDS011;30214;52.246;14.408;2022-12-19T06:19:57;60.55;;;23.80;;
44508;SDS011;30214;52.246;14.408;2022-12-19T06:22:24;55.75;;;22.48;;
44508;SDS011;30214;52.246;14.408;2022-12-19T06:24:51;57.70;;;22.23;;
44508;SDS011;30214;52.246;14.408;2022-12-19T06:27:19;56.22;;;24.52;;
44508;SDS011;30214;52.246;14.408;2022-12-19T06:29:46;61.60;;;22.80;;
44508;SDS011;30214;52.246;14.408;2022-12-19T06:32:14;60.70;;;25.73;;
44508;SDS011;30214;52.246;14.408;2022-12-19T06:34:41;54.17;;;22.33;;
44508;SDS011;30214;52.246;14.408;2022-12-19T06:37:08;55.28;;;23.70;;
44508;SDS011;30214;52.246;14.408;2022-12-19T06:39:36;56.92;;;23.13;;
44508;SDS011;30214;52.246;14.408;2022-12-19T06:42:03;52.42;;;22.40;;
44508;SDS011;30214;52.246;14.408;2022-12-19T06:44:52;57.05;;;22.85;;
44508;SDS011;30214;52.246;14.408;2022-12-19T06:47:23;56.13;;;23.73;;
44508;SDS011;30214;52.246;14.408;2022-12-19T06:49:51;59.33;;;24.33;;
44508;SDS011;30214;52.246;14.408;2022-12-19T06:52:18;61.75;;;25.92;;
44508;SDS011;30214;52.246;14.408;2022-12-19T06:54:46;60.67;;;25.30;;
44508;SDS011;30214;52.246;14.408;2022-12-19T06:57:13;60.83;;;25.25;;
44508;SDS011;30214;52.246;14.408;2022-12-19T06:59:40;61.72;;;24.05;;
44508;SDS011;30214;52.246;14.408;2022-12-19T07:02:11;56.85;;;23.10;;
44508;SDS011;30214;52.246;14.408;2022-12-19T07:04:54;56.40;;;24.20;;
44508;SDS011;30214;52.246;14.408;2022-12-19T07:07:26;59.50;;;23.45;;
44508;SDS011;30214;52.246;14.408;2022-12-19T07:09:54;57.83;;;23.73;;
44508;SDS011;30214;52.246;14.408;2022-12-19T07:12:21;56.13;;;22.63;;
44508;SDS011;30214;52.246;14.408;2022-12-19T07:14:48;57.20;;;23.70;;
44508;SDS011;30214;52.246;14.408;2022-12-19T07:17:15;55.92;;;22.60;;
44508;SDS011;30214;52.246;14.408;2022-12-19T07:19:45;53.05;;;23.10;;
44508;SDS011;30214;52.246;14.408;2022-12-19T07:22:15;62.88;;;25.55;;
44508;SDS011;30214;52.246;14.408;2022-12-19T07:24:42;52.72;;;21.80;;
44508;SDS011;30214;52.246;14.408;2022-12-19T07:27:09;57.28;;;23.48;;
44508;SDS011;30214;52.246;14.408;2022-12-19T07:29:37;56.35;;;23.40;;
44508;SDS011;30214;52.246;14.408;2022-12-19T07:32:04;55.80;;;24.50;;
44508;SDS011;30214;52.246;14.408;2022-12-19T07:34:31;58.75;;;23.42;;
44508;SDS011;30214;52.246;14.408;2022-12-19T07:36:59;57.80;;;23.83;;
44508;SDS011;30214;52.246;14.408;2022-12-19T07:39:26;53.95;;;23.35;;
44508;SDS011;30214;52.246;14.408;2022-12-19T07:41:53;57.42;;;22.35;;
44508;SDS011;30214;52.246;14.408;2022-12-19T07:44:31;56.60;;;24.70;;
44508;SDS011;30214;52.246;14.408;2022-12-19T07:46:58;53.40;;;23.80;;
44508;SDS011;30214;52.246;14.408;2022-12-19T07:49:25;49.97;;;22.90;;
44508;SDS011;30214;52.246;14.408;2022-12-19T07:51:52;56.25;;;23.30;;
44508;SDS011;30214;52.246;14.408;2022-12-19T07:54:21;46.83;;;21.63;;
44508;SDS011;30214;52.246;14.408;2022-12-19T07:56:48;54.05;;;22.05;;
44508;SDS011;30214;52.246;14.408;2022-12-19T07:59:15;51.53;;;22.83;;
44508;SDS011;30214;52.246;14.408;2022-12-19T08:01:42;47.55;;;20.88;;
44508;SDS011;30214;52.246;14.408;2022-12-19T08:04:09;50.55;;;20.73;;
44508;SDS011;30214;52.246;14.408;2022-12-19T08:06:36;43.83;;;20.58;;
44508;SDS011;30214;52.246;14.408;2022-12-19T08:09:03;42.05;;;20.35;;
44508;SDS011;30214;52.246;14.408;2022-12-19T08:11:32;45.42;;;20.70;;
44508;SDS011;30214;52.246;14.408;2022-12-19T08:13:59;48.63;;;21.20;;
44508;SDS011;30214;52.246;14.408;2022-12-19T08:16:26;45.97;;;20.55;;
44508;SDS011;30214;52.246;14.408;2022-12-19T08:18:53;43.20;;;19.70;;
44508;SDS011;30214;52.246;14.408;2022-12-19T08:21:25;41.83;;;19.90;;
44508;SDS011;30214;52.246;14.408;2022-12-19T08:23:53;41.67;;;19.58;;
44508;SDS011;30214;52.246;14.408;2022-12-19T08:26:23;41.03;;;20.25;;
44508;SDS011;30214;52.246;14.408;2022-12-19T08:28:53;47.20;;;20.25;;
44508;SDS011;30214;52.246;14.408;2022-12-19T08:31:26;43.17;;;19.10;;
44508;SDS011;30214;52.246;14.408;2022-12-19T08:33:58;39.90;;;19.02;;
44508;SDS011;30214;52.246;14.408;2022-12-19T08:36:43;35.03;;;17.40;;
44508;SDS011;30214;52.246;14.408;2022-12-19T08:39:12;38.58;;;17.67;;
44508;SDS011;30214;52.246;14.408;2022-12-19T08:41:43;40.92;;;18.65;;
44508;SDS011;30214;52.246;14.408;2022-12-19T08:44:13;37.88;;;18.40;;
44508;SDS011;30214;52.246;14.408;2022-12-19T08:46:43;37.85;;;16.98;;
44508;SDS011;30214;52.246;14.408;2022-12-19T08:49:14;36.00;;;17.98;;
44508;SDS011;30214;52.246;14.408;2022-12-19T08:51:44;36.33;;;16.95;;
44508;SDS011;30214;52.246;14.408;2022-12-19T08:54:14;37.55;;;18.05;;
44508;SDS011;30214;52.246;14.408;2022-12-19T08:56:41;36.33;;;17.73;;
44508;SDS011;30214;52.246;14.408;2022-12-19T08:59:09;39.47;;;18.98;;
44508;SDS011;30214;52.246;14.408;2022-12-19T09:01:37;38.78;;;18.00;;
44508;SDS011;30214;52.246;14.408;2022-12-19T09:04:07;34.85;;;17.15;;
44508;SDS011;30214;52.246;14.408;2022-12-19T09:06:34;36.42;;;17.75;;
44508;SDS011;30214;52.246;14.408;2022-12-19T09:09:02;36.42;;;18.08;;
44508;SDS011;30214;52.246;14.408;2022-12-19T09:11:30;35.05;;;17.92;;
44508;SDS011;30214;52.246;14.408;2022-12-19T09:13:57;34.78;;;18.27;;
44508;SDS011;30214;52.246;14.408;2022-12-19T09:16:25;36.67;;;17.40;;
44508;SDS011;30214;52.246;14.408;2022-12-19T09:18:55;38.00;;;18.67;;
44508;SDS011;30214;52.246;14.408;2022-12-19T09:21:24;41.63;;;18.52;;
44508;SDS011;30214;52.246;14.408;2022-12-19T09:23:54;32.97;;;16.70;;
44508;SDS011;30214;52.246;14.408;2022-12-19T09:26:23;36.60;;;17.83;;
44508;SDS011;30214;52.246;14.408;2022-12-19T09:28:52;37.10;;;18.77;;
44508;SDS011;30214;52.246;14.408;2022-12-19T09:31:20;35.03;;;17.70;;
44508;SDS011;30214;52.246;14.408;2022-12-19T09:33:49;36.45;;;17.33;;
44508;SDS011;30214;52.246;14.408;2022-12-19T09:36:19;34.65;;;17.40;;
44508;SDS011;30214;52.246;14.408;2022-12-19T09:38:49;33.88;;;17.27;;
44508;SDS011;30214;52.246;14.408;2022-12-19T09:41:26;37.17;;;17.55;;
44508;SDS011;30214;52.246;14.408;2022-12-19T09:44:15;34.40;;;17.48;;
44508;SDS011;30214;52.246;14.408;2022-12-19T09:46:57;37.75;;;18.75;;
44508;SDS011;30214;52.246;14.408;2022-12-19T09:49:28;35.47;;;17.90;;
44508;SDS011;30214;52.246;14.408;2022-12-19T09:52:04;32.50;;;16.77;;
44508;SDS011;30214;52.246;14.408;2022-12-19T09:54:36;35.15;;;17.88;;
44508;SDS011;30214;52.246;14.408;2022-12-19T09:57:09;35.80;;;17.58;;
44508;SDS011;30214;52.246;14.408;2022-12-19T09:59:43;37.45;;;18.63;;
44508;SDS011;30214;52.246;14.408;2022-12-19T10:02:25;34.85;;;17.42;;
44508;SDS011;30214;52.246;14.408;2022-12-19T10:05:03;34.00;;;17.80;;
44508;SDS011;30214;52.246;14.408;2022-12-19T10:07:41;37.10;;;18.13;;
44508;SDS011;30214;52.246;14.408;2022-12-19T10:10:12;35.28;;;18.52;;
44508;SDS011;30214;52.246;14.408;2022-12-19T10:12:47;35.22;;;18.23;;
44508;SDS011;30214;52.246;14.408;2022-12-19T10:15:37;33.65;;;18.83;;
44508;SDS011;30214;52.246;14.408;2022-12-19T10:18:18;32.90;;;17.33;;
44508;SDS011;30214;52.246;14.408;2022-12-19T10:21:01;38.17;;;19.60;;
44508;SDS011;30214;52.246;14.408;2022-12-19T10:23:39;30.48;;;17.02;;
44508;SDS011;30214;52.246;14.408;2022-12-19T10:26:23;34.90;;;18.75;;
44508;SDS011;30214;52.246;14.408;2022-12-19T10:29:02;31.95;;;17.63;;
44508;SDS011;30214;52.246;14.408;2022-12-19T10:31:47;34.22;;;17.40;;
44508;SDS011;30214;52.246;14.408;2022-12-19T10:34:21;36.92;;;19.77;;
44508;SDS011;30214;52.246;14.408;2022-12-19T10:36:52;34.30;;;17.88;;
44508;SDS011;30214;52.246;14.408;2022-12-19T10:39:26;34.10;;;17.90;;
44508;SDS011;30214;52.246;14.408;2022-12-19T10:44:33;38.25;;;18.48;;
44508;SDS011;30214;52.246;14.408;2022-12-19T10:47:04;35.90;;;18.58;;
44508;SDS011;30214;52.246;14.408;2022-12-19T10:49:32;34.15;;;17.92;;
44508;SDS011;30214;52.246;14.408;2022-12-19T10:52:00;35.55;;;17.92;;
44508;SDS011;30214;52.246;14.408;2022-12-19T10:54:40;34.92;;;17.77;;
44508;SDS011;30214;52.246;14.408;2022-12-19T10:57:18;33.40;;;17.63;;
44508;SDS011;30214;52.246;14.408;2022-12-19T10:59:53;37.15;;;18.88;;
44508;SDS011;30214;52.246;14.408;2022-12-19T11:02:32;33.95;;;18.15;;
44508;SDS011;30214;52.246;14.408;2022-12-19T11:05:20;32.38;;;17.58;;
44508;SDS011;30214;52.246;14.408;2022-12-19T11:07:59;33.65;;;18.35;;
44508;SDS011;30214;52.246;14.408;2022-12-19T11:10:35;31.85;;;17.42;;
44508;SDS011;30214;52.246;14.408;2022-12-19T11:13:14;35.83;;;18.27;;
44508;SDS011;30214;52.246;14.408;2022-12-19T11:15:46;33.83;;;17.85;;
44508;SDS011;30214;52.246;14.408;2022-12-19T11:18:15;35.78;;;19.15;;
44508;SDS011;30214;52.246;14.408;2022-12-19T11:20:52;31.83;;;17.95;;
44508;SDS011;30214;52.246;14.408;2022-12-19T11:23:23;33.47;;;17.80;;
44508;SDS011;30214;52.246;14.408;2022-12-19T11:25:54;34.85;;;18.67;;
44508;SDS011;30214;52.246;14.408;2022-12-19T11:28:25;31.65;;;16.48;;
44508;SDS011;30214;52.246;14.408;2022-12-19T11:30:59;31.90;;;15.93;;
44508;SDS011;30214;52.246;14.408;2022-12-19T11:33:30;30.90;;;17.50;;
44508;SDS011;30214;52.246;14.408;2022-12-19T11:35:59;32.92;;;17.65;;
44508;SDS011;30214;52.246;14.408;2022-12-19T11:38:31;32.58;;;18.05;;
44508;SDS011;30214;52.246;14.408;2022-12-19T11:41:08;30.88;;;17.05;;
44508;SDS011;30214;52.246;14.408;2022-12-19T11:43:40;33.85;;;17.92;;
44508;SDS011;30214;52.246;14.408;2022-12-19T11:46:22;34.40;;;18.27;;
44508;SDS011;30214;52.246;14.408;2022-12-19T11:49:00;34.35;;;17.17;;
44508;SDS011;30214;52.246;14.408;2022-12-19T11:51:33;29.58;;;16.48;;
44508;SDS011;30214;52.246;14.408;2022-12-19T11:54:11;29.85;;;16.77;;
44508;SDS011;30214;52.246;14.408;2022-12-19T11:56:44;35.15;;;17.05;;
44508;SDS011;30214;52.246;14.408;2022-12-19T11:59:13;31.20;;;17.42;;
44508;SDS011;30214;52.246;14.408;2022-12-19T12:01:53;31.10;;;16.45;;
44508;SDS011;30214;52.246;14.408;2022-12-19T12:04:44;35.83;;;18.42;;
44508;SDS011;30214;52.246;14.408;2022-12-19T12:07:28;30.95;;;17.17;;
44508;SDS011;30214;52.246;14.408;2022-12-19T12:10:02;34.60;;;17.20;;
44508;SDS011;30214;52.246;14.408;2022-12-19T12:12:44;33.05;;;17.33;;
44508;SDS011;30214;52.246;14.408;2022-12-19T12:15:31;33.95;;;17.23;;
44508;SDS011;30214;52.246;14.408;2022-12-19T12:18:14;32.10;;;17.60;;
44508;SDS011;30214;52.246;14.408;2022-12-19T12:21:16;30.95;;;16.75;;
44508;SDS011;30214;52.246;14.408;2022-12-19T12:24:00;32.47;;;16.77;;
44508;SDS011;30214;52.246;14.408;2022-12-19T12:26:59;31.25;;;16.67;;
44508;SDS011;30214;52.246;14.408;2022-12-19T12:29:55;27.30;;;16.08;;
44508;SDS011;30214;52.246;14.408;2022-12-19T12:32:37;29.08;;;16.23;;
44508;SDS011;30214;52.246;14.408;2022-12-19T12:35:26;32.17;;;16.38;;
44508;SDS011;30214;52.246;14.408;2022-12-19T12:38:06;31.25;;;16.33;;
44508;SDS011;30214;52.246;14.408;2022-12-19T12:44:08;32.60;;;17.45;;
44508;SDS011;30214;52.246;14.408;2022-12-19T12:46:48;32.45;;;18.13;;
44508;SDS011;30214;52.246;14.408;2022-12-19T12:49:27;31.23;;;17.52;;
44508;SDS011;30214;52.246;14.408;2022-12-19T12:52:04;30.00;;;16.65;;
44508;SDS011;30214;52.246;14.408;2022-12-19T12:54:38;31.58;;;17.17;;
44508;SDS011;30214;52.246;14.408;2022-12-19T12:57:14;28.02;;;16.30;;
44508;SDS011;30214;52.246;14.408;2022-12-19T12:59:46;32.20;;;16.92;;
44508;SDS011;30214;52.246;14.408;2022-12-19T13:02:15;30.70;;;16.83;;
44508;SDS011;30214;52.246;14.408;2022-12-19T13:04:54;31.65;;;18.33;;
44508;SDS011;30214;52.246;14.408;2022-12-19T13:07:28;30.92;;;16.85;;
44508;SDS011;30214;52.246;14.408;2022-12-19T13:10:14;34.33;;;18.70;;
44508;SDS011;30214;52.246;14.408;2022-12-19T13:12:51;32.60;;;17.83;;
44508;SDS011;30214;52.246;14.408;2022-12-19T13:15:35;32.70;;;17.77;;
44508;SDS011;30214;52.246;14.408;2022-12-19T13:18:13;32.70;;;17.73;;
44508;SDS011;30214;52.246;14.408;2022-12-19T13:21:02;33.13;;;18.25;;
44508;SDS011;30214;52.246;14.408;2022-12-19T13:23:40;33.20;;;18.38;;
44508;SDS011;30214;52.246;14.408;2022-12-19T13:26:20;40.10;;;20.67;;
44508;SDS011;30214;52.246;14.408;2022-12-19T13:29:24;34.53;;;19.40;;
44508;SDS011;30214;52.246;14.408;2022-12-19T13:32:11;38.40;;;20.65;;
44508;SDS011;30214;52.246;14.408;2022-12-19T13:34:50;42.80;;;24.92;;
44508;SDS011;30214;52.246;14.408;2022-12-19T13:37:28;39.17;;;20.23;;
44508;SDS011;30214;52.246;14.408;2022-12-19T13:40:00;37.42;;;19.55;;
44508;SDS011;30214;52.246;14.408;2022-12-19T13:42:38;34.88;;;19.48;;
44508;SDS011;30214;52.246;14.408;2022-12-19T13:45:35;36.92;;;19.05;;
44508;SDS011;30214;52.246;14.408;2022-12-19T13:48:08;33.60;;;19.30;;
44508;SDS011;30214;52.246;14.408;2022-12-19T13:50:44;37.92;;;20.33;;
44508;SDS011;30214;52.246;14.408;2022-12-19T13:53:13;37.58;;;19.20;;
44508;SDS011;30214;52.246;14.408;2022-12-19T13:55:41;41.03;;;21.17;;
44508;SDS011;30214;52.246;14.408;2022-12-19T13:58:14;34.80;;;19.33;;
44508;SDS011;30214;52.246;14.408;2022-12-19T14:00:49;37.25;;;19.73;;
44508;SDS011;30214;52.246;14.408;2022-12-19T14:03:19;35.00;;;20.58;;
44508;SDS011;30214;52.246;14.408;2022-12-19T14:05:57;34.65;;;19.30;;
44508;SDS011;30214;52.246;14.408;2022-12-19T14:08:35;36.95;;;20.08;;
44508;SDS011;30214;52.246;14.408;2022-12-19T14:11:06;40.47;;;20.73;;
44508;SDS011;30214;52.246;14.408;2022-12-19T14:13:41;39.30;;;21.67;;
44508;SDS011;30214;52.246;14.408;2022-12-19T14:16:28;36.67;;;19.98;;
44508;SDS011;30214;52.246;14.408;2022-12-19T14:18:56;36.70;;;20.17;;
44508;SDS011;30214;52.246;14.408;2022-12-19T14:21:26;39.65;;;20.83;;
44508;SDS011;30214;52.246;14.408;2022-12-19T14:24:08;38.20;;;21.20;;
44508;SDS011;30214;52.246;14.408;2022-12-19T14:26:39;38.93;;;20.77;;
44508;SDS011;30214;52.246;14.408;2022-12-19T14:29:08;40.05;;;22.13;;
44508;SDS011;30214;52.246;14.408;2022-12-19T14:31:40;38.00;;;20.52;;
44508;SDS011;30214;52.246;14.408;2022-12-19T14:34:12;39.83;;;20.42;;
44508;SDS011;30214;52.246;14.408;2022-12-19T14:36:50;40.10;;;21.92;;
44508;SDS011;30214;52.246;14.408;2022-12-19T14:39:20;35.25;;;19.90;;
44508;SDS011;30214;52.246;14.408;2022-12-19T14:41:51;41.35;;;21.83;;
44508;SDS011;30214;52.246;14.408;2022-12-19T14:44:45;43.80;;;23.40;;
44508;SDS011;30214;52.246;14.408;2022-12-19T14:47:19;39.08;;;20.98;;
44508;SDS011;30214;52.246;14.408;2022-12-19T14:49:49;35.17;;;19.90;;
44508;SDS011;30214;52.246;14.408;2022-12-19T14:55:26;38.00;;;20.85;;